Etusivu
METAR-TAF:

METAR-TAF

Lentoasemat :

Les Ajoncs

La Roche-sur-Yon, Ranska

Leveyspiiri: 46-42N, Pituuspiiri: 001-23W, korkeus merenpinnasta: 90 m

Tämänhetkinen sää

Tämä raportti tehtiin 34 minuuttia sitten, kello 15.00 UTC
Tuuli 12 kn koillisesta
Lämpötila 15°C
Kosteus 55%
Ilmanpaine 1030 hPa
Näkyvyys 10 km tai enemmän
ei pilviä alle 1500 m:ssä eikä cumulonimbus-pilviä

METAR: LFRI 211500Z AUTO 04012KT CAVOK 15/06 Q1030 NOSIG

Aika: 16:34 (15:34 UTC)

Sääennuste

Tämä raportti tehtiin 4 tuntia ja 34 minuuttia sitten, kello 11.00 UTC
Ennuste voimassa 21. päivästä klo 12 UTC - 22. päivään klo 12 UTC
Tuuli 5 kn koillisesta
Näkyvyys 10 km tai enemmän
ei pilviä alle 1500 m:ssä eikä cumulonimbus-pilviä
Ajoittain
22. päivästä klo 00 UTC - 22. päivään klo 09 UTC
Näkyvyys: 3000 m
utua
Ajoittain
22. päivästä klo 02 UTC - 22. päivään klo 07 UTC
Näkyvyys: 0500 m
sumua

TAF: LFRI 211100Z 2112/2212 04005KT CAVOK TEMPO 2200/2209 3000 BR TEMPO 2202/2207 0500 FG VV///

Säähavainnot ja -ennusteet yli 4000 lentoasemalta (METAR- ja TAF-raportit).

Käytössä olevat sääasemat on merkitty karttaan keltaisilla ja punaisilla pisteillä.

Aseta hiiri pisteen päälle nähdäksesi sääaseman nimen.

Klikkaa sitten nähdäksesi säähavainnot ja -ennusteet.

Kartan vaihtaminen: klikkaa mustalla rastilla varustettuja vihreitä pisteitä, niin voit zoomata sisään; viivalla varustettua vihreää pistettä, niin voit zoomata ulos tai vihreitä nuolia, niin pääset viereisille kartoille.


METAR-TAF: